createdAt,value
2018-04-06T00:01:23.238Z,1.83
2018-04-06T00:03:51.659Z,1.73
2018-04-06T00:06:20.043Z,1.82
2018-04-06T00:08:48.644Z,1.72
2018-04-06T00:11:17.055Z,1.83
2018-04-06T00:13:45.559Z,1.88
2018-04-06T00:16:14.013Z,1.85
2018-04-06T00:18:42.549Z,1.88
2018-04-06T00:21:11.013Z,2.04
2018-04-06T00:23:39.509Z,2.33
2018-04-06T00:26:07.924Z,2.60
2018-04-06T00:28:36.364Z,2.71
2018-04-06T00:31:04.707Z,2.73
2018-04-06T00:33:33.081Z,2.68
2018-04-06T00:36:02.231Z,2.70
2018-04-06T00:38:30.672Z,2.69
2018-04-06T00:40:59.072Z,2.79
2018-04-06T00:43:27.455Z,2.93
2018-04-06T00:45:55.874Z,3.01
2018-04-06T00:48:24.360Z,3.10
2018-04-06T00:50:52.758Z,3.10
2018-04-06T00:53:39.524Z,3.15
2018-04-06T00:56:09.242Z,3.20
2018-04-06T00:58:37.640Z,3.17
2018-04-06T01:01:06.228Z,3.01
2018-04-06T01:03:34.935Z,2.95
2018-04-06T01:06:04.100Z,2.83
2018-04-06T01:08:32.508Z,2.82
2018-04-06T01:11:01.673Z,2.93
2018-04-06T01:13:30.099Z,3.02
2018-04-06T01:15:59.266Z,3.00
2018-04-06T01:18:27.668Z,3.13
2018-04-06T01:20:56.051Z,3.16
2018-04-06T01:23:25.228Z,3.11
2018-04-06T01:25:53.609Z,3.04
2018-04-06T01:28:22.008Z,2.93
2018-04-06T01:30:50.917Z,2.84
2018-04-06T01:33:20.078Z,2.85
2018-04-06T01:35:48.515Z,2.79
2018-04-06T01:38:16.891Z,2.58
2018-04-06T01:40:45.287Z,2.46
2018-04-06T01:43:13.664Z,2.35
2018-04-06T01:45:42.076Z,2.34
2018-04-06T01:48:10.484Z,2.26
2018-04-06T01:50:38.951Z,2.19
2018-04-06T01:53:07.355Z,2.16
2018-04-06T01:55:36.554Z,2.15
2018-04-06T01:58:06.104Z,2.18
2018-04-06T02:00:34.531Z,1.98
2018-04-06T02:03:02.914Z,1.94
2018-04-06T02:05:31.312Z,1.88
2018-04-06T02:08:00.464Z,1.92
2018-04-06T02:10:28.871Z,2.05
2018-04-06T02:12:57.279Z,1.93
2018-04-06T02:15:26.607Z,1.86
2018-04-06T02:17:55.037Z,1.80
2018-04-06T02:20:23.413Z,1.60
2018-04-06T02:22:52.571Z,1.73
2018-04-06T02:25:20.949Z,1.86
2018-04-06T02:27:49.384Z,1.78
2018-04-06T02:30:18.578Z,1.75
2018-04-06T02:32:46.959Z,1.89
2018-04-06T02:35:15.338Z,1.96
2018-04-06T02:37:43.738Z,1.97
2018-04-06T02:40:12.113Z,1.99
2018-04-06T02:42:41.390Z,2.09
2018-04-06T02:45:09.801Z,2.25
2018-04-06T02:47:39.066Z,2.44
2018-04-06T02:50:07.466Z,2.49
2018-04-06T02:52:36.641Z,2.39
2018-04-06T02:55:05.025Z,2.32
2018-04-06T02:57:33.447Z,2.29
2018-04-06T03:00:02.707Z,2.44
2018-04-06T03:02:31.147Z,2.51
2018-04-06T03:04:59.544Z,2.49
2018-04-06T03:07:28.014Z,2.52
2018-04-06T03:09:56.402Z,2.58
2018-04-06T03:12:24.898Z,2.62
2018-04-06T03:14:53.298Z,2.49
2018-04-06T03:17:21.656Z,2.59
2018-04-06T03:19:50.147Z,2.57
2018-04-06T03:22:18.527Z,2.49
2018-04-06T03:24:46.914Z,2.54
2018-04-06T03:27:15.294Z,2.38
2018-04-06T03:29:43.725Z,2.26
2018-04-06T03:32:12.104Z,2.23
2018-04-06T03:34:40.539Z,2.22
2018-04-06T03:37:08.935Z,2.17
2018-04-06T03:39:37.325Z,1.99
2018-04-06T03:42:06.475Z,1.99
2018-04-06T03:44:34.866Z,1.92
2018-04-06T03:47:03.273Z,2.11
2018-04-06T03:49:31.939Z,2.07
2018-04-06T03:52:00.355Z,2.41
2018-04-06T03:54:28.823Z,2.51
2018-04-06T03:56:57.223Z,2.39
2018-04-06T03:59:25.602Z,2.39
2018-04-06T04:01:53.991Z,2.41
2018-04-06T04:04:23.174Z,2.41
2018-04-06T04:06:51.570Z,2.47
2018-04-06T04:09:20.768Z,2.45
2018-04-06T04:11:49.925Z,2.43
2018-04-06T04:14:18.309Z,2.47
2018-04-06T04:16:46.804Z,2.51
2018-04-06T04:19:15.584Z,2.48
2018-04-06T04:21:44.015Z,2.31
2018-04-06T04:24:13.237Z,2.28
2018-04-06T04:26:41.647Z,2.22
2018-04-06T04:29:10.071Z,2.08
2018-04-06T04:31:39.227Z,2.09
2018-04-06T04:34:07.627Z,2.02
2018-04-06T04:36:36.033Z,2.17
2018-04-06T04:39:06.138Z,2.18
2018-04-06T04:41:34.560Z,2.14
2018-04-06T04:44:02.952Z,2.23
2018-04-06T04:46:31.351Z,2.27
2018-04-06T04:48:59.737Z,2.21
2018-04-06T04:51:28.145Z,2.18
2018-04-06T04:53:56.600Z,2.18
2018-04-06T04:56:24.992Z,2.24
2018-04-06T04:58:53.383Z,2.14
2018-04-06T05:01:21.778Z,2.09
2018-04-06T05:03:50.950Z,2.06
2018-04-06T05:06:19.311Z,2.03
2018-04-06T05:08:47.710Z,1.97
2018-04-06T05:11:16.084Z,1.92
2018-04-06T05:13:44.461Z,2.08
2018-04-06T05:16:12.916Z,2.19
2018-04-06T05:18:41.314Z,2.14
2018-04-06T05:21:09.731Z,2.16
2018-04-06T05:23:38.107Z,2.17
2018-04-06T05:26:06.523Z,2.23
2018-04-06T05:28:34.925Z,2.34
2018-04-06T05:31:03.335Z,2.38
2018-04-06T05:33:31.731Z,2.54
2018-04-06T05:36:00.144Z,2.52
2018-04-06T05:38:28.610Z,2.62
2018-04-06T05:40:57.759Z,2.77
2018-04-06T05:43:26.201Z,2.83
2018-04-06T05:45:55.351Z,2.89
2018-04-06T05:48:23.738Z,2.94
2018-04-06T05:50:52.251Z,3.43
2018-04-06T05:53:21.552Z,4.00
2018-04-06T05:55:50.700Z,4.88
2018-04-06T05:58:19.208Z,5.53
2018-04-06T06:00:47.575Z,5.66
2018-04-06T06:03:16.046Z,5.54
2018-04-06T06:05:44.443Z,6.33
2018-04-06T06:08:12.839Z,6.17
2018-04-06T06:10:41.358Z,6.48
2018-04-06T06:13:09.776Z,6.41
2018-04-06T06:15:38.205Z,7.07
2018-04-06T06:18:07.355Z,7.22
2018-04-06T06:20:35.756Z,7.80
2018-04-06T06:23:04.310Z,7.91
2018-04-06T06:25:32.765Z,7.87
2018-04-06T06:28:01.221Z,8.03
2018-04-06T06:30:29.631Z,9.38
2018-04-06T06:32:58.061Z,8.99
2018-04-06T06:35:26.468Z,8.64
2018-04-06T06:37:55.662Z,8.61
2018-04-06T06:40:24.047Z,9.58
2018-04-06T06:42:53.541Z,8.75
2018-04-06T06:45:22.018Z,9.46
2018-04-06T06:47:50.417Z,8.86
2018-04-06T06:50:19.631Z,8.44
2018-04-06T06:52:48.775Z,9.56
2018-04-06T06:55:17.192Z,8.98
2018-04-06T06:57:45.587Z,10.03
2018-04-06T07:00:15.568Z,9.48
2018-04-06T07:02:43.984Z,9.80
2018-04-06T07:05:13.335Z,9.98
2018-04-06T07:07:41.744Z,10.48
2018-04-06T07:10:10.941Z,10.33
2018-04-06T07:12:40.107Z,10.49
2018-04-06T07:15:08.516Z,10.05
2018-04-06T07:17:36.987Z,10.02
2018-04-06T07:20:05.510Z,10.35
2018-04-06T07:22:34.688Z,10.22
2018-04-06T07:25:03.949Z,9.75
2018-04-06T07:27:32.421Z,10.66
2018-04-06T07:30:00.863Z,10.91
2018-04-06T07:32:29.331Z,11.02
2018-04-06T07:34:57.713Z,11.33
2018-04-06T07:37:26.339Z,11.02
2018-04-06T07:39:55.664Z,12.02
2018-04-06T07:42:24.062Z,12.79
2018-04-06T07:44:52.481Z,12.36
2018-04-06T07:47:20.905Z,11.52
2018-04-06T07:49:49.358Z,11.76
2018-04-06T07:52:17.840Z,12.17
2018-04-06T07:54:47.199Z,11.93
2018-04-06T07:57:15.854Z,12.47
2018-04-06T07:59:44.280Z,12.77
2018-04-06T08:02:13.156Z,12.48
2018-04-06T08:04:41.582Z,12.11
2018-04-06T08:07:10.753Z,13.26
2018-04-06T08:09:39.282Z,13.55
2018-04-06T08:12:07.808Z,13.78
2018-04-06T08:14:36.384Z,13.43
2018-04-06T08:17:04.953Z,12.98
2018-04-06T08:19:33.376Z,13.45
2018-04-06T08:22:01.791Z,13.29
2018-04-06T08:24:31.224Z,13.41
2018-04-06T08:26:59.638Z,14.30
2018-04-06T08:29:28.083Z,13.69
2018-04-06T08:31:56.527Z,13.69
2018-04-06T08:34:24.950Z,13.60
2018-04-06T08:36:53.429Z,14.21
2018-04-06T08:39:21.824Z,14.96
2018-04-06T08:41:50.235Z,13.62
2018-04-06T08:44:18.730Z,14.23
2018-04-06T08:46:47.193Z,13.88
2018-04-06T08:49:15.600Z,14.11
2018-04-06T08:51:44.005Z,14.73
2018-04-06T08:54:12.466Z,14.30
2018-04-06T08:56:40.831Z,14.33
2018-04-06T08:59:09.232Z,14.39
2018-04-06T09:01:38.420Z,14.92
2018-04-06T09:04:06.801Z,14.48
2018-04-06T09:06:35.223Z,14.65
2018-04-06T09:09:03.619Z,14.12
2018-04-06T09:11:32.038Z,14.72
2018-04-06T09:14:00.474Z,14.70
2018-04-06T09:16:29.111Z,14.92
2018-04-06T09:18:57.493Z,14.90
2018-04-06T09:21:25.902Z,15.34
2018-04-06T09:23:54.314Z,14.95
2018-04-06T09:26:22.682Z,15.31
2018-04-06T09:28:51.088Z,14.60
2018-04-06T09:31:19.463Z,16.06
2018-04-06T09:33:47.871Z,15.56
2018-04-06T09:36:16.271Z,15.55
2018-04-06T09:38:44.696Z,15.02
2018-04-06T09:41:13.174Z,15.57
2018-04-06T09:43:41.612Z,15.38
2018-04-06T09:46:10.036Z,15.34
2018-04-06T09:48:38.440Z,15.37
2018-04-06T09:51:06.852Z,14.93
2018-04-06T09:53:36.044Z,15.44
2018-04-06T09:56:04.446Z,15.51
2018-04-06T09:58:32.919Z,15.53
2018-04-06T10:01:01.315Z,16.02
2018-04-06T10:03:29.719Z,16.10
2018-04-06T10:05:58.120Z,16.66
2018-04-06T10:08:26.528Z,16.46
2018-04-06T10:10:55.693Z,16.57
2018-04-06T10:13:24.088Z,16.18
2018-04-06T10:15:52.496Z,16.87
2018-04-06T10:18:21.688Z,16.73
2018-04-06T10:20:50.329Z,17.15
2018-04-06T10:23:18.847Z,16.64
2018-04-06T10:25:47.238Z,15.60
2018-04-06T10:28:16.389Z,16.30
2018-04-06T10:30:44.856Z,16.36
2018-04-06T10:33:13.254Z,16.61
2018-04-06T10:35:41.751Z,17.49
2018-04-06T10:38:10.168Z,17.03
2018-04-06T10:40:39.351Z,17.07
2018-04-06T10:43:07.759Z,16.76
2018-04-06T10:45:36.967Z,16.72
2018-04-06T10:48:05.415Z,17.20
2018-04-06T10:50:33.815Z,17.88
2018-04-06T10:53:03.045Z,17.93
2018-04-06T10:55:31.521Z,17.08
2018-04-06T10:57:59.940Z,17.89
2018-04-06T11:00:28.313Z,17.78
2018-04-06T11:02:56.701Z,17.51
2018-04-06T11:05:25.106Z,17.19
2018-04-06T11:07:53.507Z,17.00
2018-04-06T11:10:21.948Z,17.25
2018-04-06T11:12:50.467Z,17.20
2018-04-06T11:15:19.678Z,17.36
2018-04-06T11:17:48.076Z,17.04
2018-04-06T11:20:16.530Z,16.96
2018-04-06T11:22:45.669Z,17.00
2018-04-06T11:25:14.105Z,16.67
2018-04-06T11:27:43.263Z,17.42
2018-04-06T11:30:11.664Z,17.27
2018-04-06T11:32:40.080Z,17.36
2018-04-06T11:35:09.465Z,18.46
2018-04-06T11:37:37.880Z,18.05
2018-04-06T11:40:06.258Z,18.56
2018-04-06T11:42:35.421Z,17.73
2018-04-06T11:45:03.821Z,16.99
2018-04-06T11:47:32.955Z,17.23
2018-04-06T11:50:01.555Z,17.63
2018-04-06T11:52:30.031Z,17.61
2018-04-06T11:54:58.405Z,17.63
2018-04-06T11:57:26.892Z,17.77
2018-04-06T11:59:55.442Z,18.29
2018-04-06T12:02:24.772Z,17.87
2018-04-06T12:04:53.266Z,18.33
2018-04-06T12:07:21.696Z,18.25
2018-04-06T12:09:50.870Z,18.12
2018-04-06T12:12:19.299Z,17.70
2018-04-06T12:14:48.668Z,17.89
2018-04-06T12:17:17.419Z,17.78
2018-04-06T12:19:45.823Z,18.66
2018-04-06T12:22:14.219Z,17.74
2018-04-06T12:24:42.721Z,18.08
2018-04-06T12:27:11.892Z,17.50
2018-04-06T12:29:40.279Z,17.43
2018-04-06T12:32:08.719Z,17.48
2018-04-06T12:34:37.134Z,17.43
2018-04-06T12:37:05.577Z,17.76
2018-04-06T12:39:34.075Z,17.43
2018-04-06T12:42:02.549Z,17.87
2018-04-06T12:44:30.939Z,18.33
2018-04-06T12:46:59.356Z,18.01
2018-04-06T12:49:27.794Z,17.66
2018-04-06T12:51:56.279Z,17.39
2018-04-06T12:54:24.685Z,17.83
2018-04-06T12:56:53.284Z,17.80
2018-04-06T12:59:21.696Z,17.68
2018-04-06T13:01:50.847Z,17.83
2018-04-06T13:04:19.250Z,18.09
2018-04-06T13:06:47.645Z,18.09
2018-04-06T13:09:16.071Z,18.16
2018-04-06T13:11:44.570Z,18.07
2018-04-06T13:14:12.993Z,18.00
2018-04-06T13:16:41.414Z,18.24
2018-04-06T13:19:09.851Z,17.61
2018-04-06T13:21:38.256Z,17.47
2018-04-06T13:24:06.658Z,17.89
2018-04-06T13:26:35.816Z,18.52
2018-04-06T13:29:04.226Z,18.75
2018-04-06T13:31:33.397Z,18.11
2018-04-06T13:34:01.795Z,18.80
2018-04-06T13:36:31.015Z,18.90
2018-04-06T13:39:00.210Z,18.31
2018-04-06T13:41:28.598Z,18.40
2018-04-06T13:43:57.887Z,18.22
2018-04-06T13:46:27.067Z,18.76
2018-04-06T13:48:56.421Z,18.81
2018-04-06T13:51:24.886Z,19.17
2018-04-06T13:53:54.056Z,18.87
2018-04-06T13:56:23.574Z,18.87
2018-04-06T13:58:52.073Z,18.85
2018-04-06T14:01:21.265Z,18.90
2018-04-06T14:03:50.443Z,19.23
2018-04-06T14:06:18.828Z,19.43
2018-04-06T14:08:47.248Z,18.76
2018-04-06T14:11:15.676Z,19.00
2018-04-06T14:13:44.058Z,19.03
2018-04-06T14:16:12.464Z,18.59
2018-04-06T14:18:40.843Z,18.53
2018-04-06T14:21:10.043Z,18.39
2018-04-06T14:23:38.494Z,18.87
2018-04-06T14:26:06.890Z,18.79
2018-04-06T14:28:35.290Z,18.48
2018-04-06T14:31:03.685Z,18.51
2018-04-06T14:33:32.871Z,18.53
2018-04-06T14:36:01.407Z,18.54
2018-04-06T14:38:29.819Z,18.34
2018-04-06T14:40:58.223Z,18.40
2018-04-06T14:43:26.781Z,18.44
2018-04-06T14:45:55.279Z,17.89
2018-04-06T14:48:23.720Z,18.47
2018-04-06T14:50:52.143Z,18.71
2018-04-06T14:53:20.636Z,19.00
2018-04-06T14:55:49.129Z,19.06
2018-04-06T14:58:17.487Z,19.40
2018-04-06T15:00:45.967Z,18.83
2018-04-06T15:03:14.370Z,18.76
2018-04-06T15:05:43.672Z,18.79
2018-04-06T15:08:12.155Z,18.70
2018-04-06T15:10:41.698Z,18.90
2018-04-06T15:13:10.115Z,18.76
2018-04-06T15:15:39.317Z,19.08
2018-04-06T15:18:07.718Z,19.15
2018-04-06T15:20:37.406Z,18.72
2018-04-06T15:23:05.836Z,18.42
2018-04-06T15:25:34.994Z,18.31
2018-04-06T15:28:05.072Z,18.14
2018-04-06T15:30:34.233Z,17.98
2018-04-06T15:33:02.632Z,18.26
2018-04-06T15:35:31.032Z,18.27
2018-04-06T15:37:59.422Z,18.46
2018-04-06T15:40:27.822Z,18.92
2018-04-06T15:42:56.257Z,18.42
2018-04-06T15:45:24.668Z,18.89
2018-04-06T15:47:53.127Z,18.77
2018-04-06T15:50:21.581Z,18.63
2018-04-06T15:52:49.979Z,18.71
2018-04-06T15:55:18.560Z,18.36
2018-04-06T15:57:47.717Z,18.22
2018-04-06T16:00:16.138Z,18.10
2018-04-06T16:02:44.521Z,18.16
2018-04-06T16:05:13.719Z,18.54
2018-04-06T16:07:42.229Z,18.07
2018-04-06T16:10:11.476Z,17.98
2018-04-06T16:12:39.996Z,18.27
2018-04-06T16:15:08.387Z,18.53
2018-04-06T16:17:37.533Z,18.23
2018-04-06T16:20:05.929Z,17.94
2018-04-06T16:22:34.365Z,17.55
2018-04-06T16:25:03.577Z,17.66
2018-04-06T16:27:32.017Z,17.70
2018-04-06T16:30:00.532Z,17.26
2018-04-06T16:32:28.992Z,17.14
2018-04-06T16:34:57.386Z,17.40
2018-04-06T16:37:26.540Z,17.33
2018-04-06T16:39:55.125Z,17.18
2018-04-06T16:42:23.701Z,17.36
2018-04-06T16:44:52.088Z,16.92
2018-04-06T16:47:20.528Z,16.86
2018-04-06T16:49:48.973Z,16.83
2018-04-06T16:52:17.379Z,16.54
2018-04-06T16:54:46.686Z,16.46
2018-04-06T16:57:15.897Z,16.83
2018-04-06T16:59:45.089Z,16.32
2018-04-06T17:02:14.249Z,16.23
2018-04-06T17:04:42.741Z,15.98
2018-04-06T17:07:11.144Z,15.84
2018-04-06T17:09:40.313Z,15.39
2018-04-06T17:12:08.760Z,15.32
2018-04-06T17:14:37.185Z,15.11
2018-04-06T17:17:05.605Z,14.94
2018-04-06T17:19:34.012Z,14.83
2018-04-06T17:22:02.421Z,14.71
2018-04-06T17:24:30.824Z,14.72
2018-04-06T17:27:00.011Z,14.60
2018-04-06T17:29:29.179Z,14.62
2018-04-06T17:31:57.600Z,14.55
2018-04-06T17:34:26.002Z,14.44
2018-04-06T17:36:55.188Z,14.18
2018-04-06T17:39:24.352Z,14.12
2018-04-06T17:41:53.716Z,14.04
2018-04-06T17:44:22.133Z,14.07
2018-04-06T17:46:50.553Z,13.95
2018-04-06T17:49:19.811Z,14.02
2018-04-06T17:51:48.194Z,13.83
2018-04-06T17:54:16.683Z,13.94
2018-04-06T17:56:45.099Z,13.87
2018-04-06T17:59:14.304Z,13.77
2018-04-06T18:01:44.516Z,13.64
2018-04-06T18:04:14.387Z,13.51
2018-04-06T18:06:42.827Z,13.63
2018-04-06T18:09:11.382Z,13.69
2018-04-06T18:11:40.563Z,13.49
2018-04-06T18:14:09.942Z,13.47
2018-04-06T18:16:38.515Z,13.39
2018-04-06T18:19:07.124Z,13.27
2018-04-06T18:21:36.319Z,13.20
2018-04-06T18:24:05.516Z,13.11
2018-04-06T18:26:33.905Z,13.11
2018-04-06T18:29:02.305Z,13.01
2018-04-06T18:31:31.468Z,13.10
2018-04-06T18:33:59.860Z,13.06
2018-04-06T18:36:29.043Z,12.97
2018-04-06T18:38:57.451Z,12.91
2018-04-06T18:41:25.892Z,12.97
2018-04-06T18:43:54.311Z,12.78
2018-04-06T18:46:22.691Z,12.89
2018-04-06T18:48:51.225Z,12.84
2018-04-06T18:51:19.651Z,12.76
2018-04-06T18:53:48.091Z,12.87
2018-04-06T18:56:16.647Z,12.85
2018-04-06T18:58:45.487Z,12.80
2018-04-06T19:01:14.736Z,12.71
2018-04-06T19:03:43.248Z,12.66
2018-04-06T19:06:12.046Z,12.74
2018-04-06T19:08:40.463Z,12.71
2018-04-06T19:11:09.736Z,12.64
2018-04-06T19:13:38.154Z,12.49
2018-04-06T19:16:07.325Z,12.54
2018-04-06T19:18:35.720Z,12.47
2018-04-06T19:21:04.134Z,12.43
2018-04-06T19:23:32.637Z,12.44
2018-04-06T19:26:01.970Z,12.43
2018-04-06T19:28:31.204Z,12.52
2018-04-06T19:31:00.699Z,12.56
2018-04-06T19:33:29.888Z,12.56
2018-04-06T19:35:58.338Z,12.50
2018-04-06T19:38:26.908Z,12.48
2018-04-06T19:40:55.438Z,12.43
2018-04-06T19:43:23.993Z,12.29
2018-04-06T19:45:52.427Z,12.20
2018-04-06T19:48:21.673Z,12.19
2018-04-06T19:50:50.245Z,12.21
2018-04-06T19:53:18.724Z,12.08
2018-04-06T19:55:49.125Z,12.12
2018-04-06T19:58:19.729Z,12.08
2018-04-06T20:00:48.176Z,11.95
2018-04-06T20:03:17.368Z,11.83
2018-04-06T20:05:45.801Z,11.85
2018-04-06T20:08:14.238Z,11.89
2018-04-06T20:10:43.408Z,11.87
2018-04-06T20:13:11.810Z,11.85
2018-04-06T20:15:40.203Z,11.84
2018-04-06T20:18:09.458Z,11.76
2018-04-06T20:20:37.928Z,11.72
2018-04-06T20:23:06.378Z,11.64
2018-04-06T20:25:35.552Z,11.54
2018-04-06T20:28:04.206Z,11.46
2018-04-06T20:30:32.608Z,11.56
2018-04-06T20:33:01.876Z,11.40
2018-04-06T20:35:30.309Z,11.51
2018-04-06T20:37:58.706Z,11.44
2018-04-06T20:40:27.919Z,11.48
2018-04-06T20:42:56.335Z,11.52
2018-04-06T20:45:25.736Z,11.47
2018-04-06T20:47:54.142Z,11.52
2018-04-06T20:50:22.735Z,11.50
2018-04-06T20:52:51.174Z,11.48
2018-04-06T20:55:19.586Z,11.42
2018-04-06T20:57:48.055Z,11.45
2018-04-06T21:00:16.442Z,11.42
2018-04-06T21:02:44.900Z,11.38
2018-04-06T21:05:13.322Z,11.28
2018-04-06T21:07:42.291Z,11.37
2018-04-06T21:10:10.750Z,11.28
2018-04-06T21:12:39.197Z,11.37
2018-04-06T21:15:07.750Z,11.31
2018-04-06T21:17:36.181Z,11.28
2018-04-06T21:20:04.569Z,11.36
2018-04-06T21:22:33.816Z,11.25
2018-04-06T21:25:02.220Z,11.24
2018-04-06T21:27:31.543Z,11.28
2018-04-06T21:29:59.954Z,11.27
2018-04-06T21:32:28.416Z,11.24
2018-04-06T21:34:56.870Z,11.28
2018-04-06T21:37:25.270Z,11.31
2018-04-06T21:39:53.711Z,11.18
2018-04-06T21:42:22.182Z,11.27
2018-04-06T21:44:50.596Z,11.33
2018-04-06T21:47:19.177Z,11.17
2018-04-06T21:49:48.344Z,11.20
2018-04-06T21:52:17.841Z,11.33
2018-04-06T21:54:46.380Z,11.44
2018-04-06T21:57:14.791Z,11.37
2018-04-06T21:59:43.192Z,11.37
2018-04-06T22:02:12.999Z,11.27
2018-04-06T22:04:41.424Z,11.30
2018-04-06T22:07:09.840Z,11.30
2018-04-06T22:09:38.526Z,11.38
2018-04-06T22:12:06.965Z,11.49
2018-04-06T22:14:36.173Z,11.28
2018-04-06T22:17:05.417Z,11.28
2018-04-06T22:19:33.799Z,11.35
2018-04-06T22:22:02.275Z,11.27
2018-04-06T22:24:30.710Z,11.24
2018-04-06T22:26:59.970Z,11.14
2018-04-06T22:29:28.353Z,11.45
2018-04-06T22:31:56.780Z,11.43
2018-04-06T22:34:26.015Z,11.41
2018-04-06T22:36:54.985Z,11.47
2018-04-06T22:39:24.283Z,11.52
2018-04-06T22:41:52.900Z,11.47
2018-04-06T22:44:21.426Z,11.58
2018-04-06T22:46:50.623Z,11.61
2018-04-06T22:49:19.112Z,11.76
2018-04-06T22:51:47.529Z,11.66
2018-04-06T22:54:15.942Z,11.71
2018-04-06T22:56:44.330Z,11.74
2018-04-06T22:59:12.731Z,11.68
2018-04-06T23:01:41.114Z,11.69
2018-04-06T23:04:09.514Z,11.69
2018-04-06T23:06:38.850Z,11.77
2018-04-06T23:09:07.525Z,11.76
2018-04-06T23:11:35.913Z,11.67
2018-04-06T23:14:04.323Z,11.62
2018-04-06T23:16:32.721Z,11.50
2018-04-06T23:19:01.140Z,11.64
2018-04-06T23:21:29.523Z,11.77
2018-04-06T23:23:57.949Z,11.64
2018-04-06T23:26:36.239Z,11.64
2018-04-06T23:29:04.640Z,11.70
2018-04-06T23:31:33.051Z,11.74
2018-04-06T23:34:02.243Z,11.67
2018-04-06T23:36:30.687Z,11.64
2018-04-06T23:38:59.080Z,11.59
2018-04-06T23:41:27.516Z,11.57
2018-04-06T23:43:55.875Z,11.54
2018-04-06T23:46:25.046Z,11.49
2018-04-06T23:48:53.689Z,11.36
2018-04-06T23:51:22.088Z,11.30
2018-04-06T23:53:50.512Z,11.40
2018-04-06T23:56:19.054Z,11.44
2018-04-06T23:58:47.597Z,11.35
